Timeline UpdatesTrip UpdatesNews PostsPvt PostsTravel TipsAdmin PostsConv PostsFollowed PostsChat RequestsBlog PostsPNR Posts

Disclaimer
Search
 
 
Fri Apr 18, 2014 23:47:15 ISTHomeTrainsΣChainsAtlasPNRForumGalleryNewsFAQTripsMembersLoginFeedback
No Recent News for this Train
Other Trains in the News **new
Latest...
.
Tue Sep 17, 2013 (04:26PM)
⇐ Return Journey: Train# 37921

37922/Katwa Jn-Howrah Local

Sep 18 2013 (11:10PM)
Change Departure Station:
Change Arrival Station:
Post a Train Travel TipPost a Train Travel Tip **new
Post a Comment/Question/Picture/VideoPost a Comment/Question/Picture/Video
Pantry/Catering
✕ NO Pantry Car
✕ NO Catering
RSA - Rake Sharing
Rake/Coach Composition
Loco
News    PNR    Forum    Time-Table    Availability    Fare Chart    Map    Arr/Dep History    Trips    Gallery    ΣChains    X/O    Timeline    
Travel Time: 0h 27m    2 halts    Distance: 8 km    Avg Speed: 17 km/hr
Type: EMU - Kolkata
Zone: ER/Eastern
Departs @ 13:38 (Avg 26m late)
Platform# ???
SMTWTFS
Bally/BLY 
Arrives @ 14:05 (Avg 14m late)
Platform# ???
SMTWTFS
Kolkata Howrah Junction/HWH 

2 halts. 4 intermediate Stations between Bally and Kolkata Howrah Junction

Show ALL intermediate Stations  Show Old Time-Table

#CodeStation NameX/OArrivesAvgDepartsAvgHaltPFDay#KmSpeedElevZoneAddress
1KWAEKatwa Junction (5)  -10:10+19--1-135.95821mERDist - Bardhaman, West Bengal
2DHAEDainhat (4)  10:17+2310:18+271m--1-129.12919mERDaihaat Rd, West Bengal
3SHBASahebtala  10:25+2010:26+201m--1-125.71718mERSahebtala, West Bengal
4AGAEAgradwip (2)  10:36+2010:37+211m--1-122.97418mERDist - Bardhaman, West Bengal
5PTAEPatuli (2)  10:41+2210:42+251m--1-118.04318mERDist - bardhaman, West Bengal
6BQYBelerhat  10:49+2310:50+231m--1-113.05519mERJajneswarpur, West Bengal
7LKXLakshmipur (2)  10:53+2310:54+231m--1-110.24714mERDist - burdhaman, West Bengal
8MTFAMertala Phaleya  10:58+2210:59+221m--1-107.13716mERMertala Phaleya, West Bengal
9PSAEPurbasthali (2)  11:04+2211:05+221m--1-104.12019mERDist - Bardhaman, West Bengal
10BFZBhandartikuri  11:12+1911:13+201m--1-101.74621mERDist - Bardhaman, West Bengal
11NDAENabadwip Dham (3)  11:20+1911:22+192m--1-96.36215mERDist - Nadia, West Bengal
12KLNTKalinagar (1)  11:26+2111:27+211m11-92.2749mERDist - Nadia, West Bengal
13SMAESamudra Garh  11:30+2211:31+221m--1-88.55016mERDist - Bardhaman, West Bengal
14DTAEDhatrigram  11:39+2211:40+221m--1-81.86916mERDhatrigram, West Bengal
15BGRABaghnapara (2)  11:44+2311:45+241m--1-77.24116mERKalna-Memari Rd, West Bengal
16ABKAAmbika Kalna (4)  11:51+2511:52+261m--1-73.14712mERKalna, West Bengal
17GPAEGuptipara  12:01+2412:02+241m--1-66.04214mERGuptipara Railway Station, West Bengal
18BHLABehula  12:05+2412:06+241m--1-63.97316mERDist - Hooghly, West Bengal
19SOAESomra Bazar (2)  12:10+2412:11+241m--1-59.05713mERState Highway 6, West Bengal
20BGAEBalagarh  12:14+2512:15+251m--1-56.24413mERBalagarh, West Bengal
21JITJirat (3)  12:18+2512:19+251m--1-54.09517mERdist - hooghly, West Bengal
22KMAEKhamargachhi  12:23+2812:24+281m--1-47.75914mERKhamargachi, West Bengal
23DMLEDumurdaha  12:26+2812:27+281m--1-45.76515mERDumurdahadham, West Bengal
24KJUKuntighat  12:30+2912:31+291m--1-42.45017mERKuntighat Railway Station, West Bengal
25TBAETribeni  12:35+2912:36+291m--1-39.15516mERTribeni, West Bengal
26BSAEBansh Baria  12:40+3012:41+311m--1-35.41613mERBansberia, West Bengal
27BDCBandel Junction (7)  12:58+2013:01+203m--1-30.95914mERdist - HOOGHLY, West Bengal
28HGYHooghly (3)  13:03+2213:04+221m--1-29.05414mERDist - Hooghly, West Bengal
29CNSChuchura (3)  13:06+2413:07+241m--1-27.29015mERDist - HOOGHLY - 712102, West Bengal
30CGRChandan Nagar (3)  13:09+2513:10+251m--1-24.27116mERDist -HOOGHLY - 712136, West Bengal
31MUUMankundu (3)  13:12+2513:13+251m--1-21.813313mERChandannagar, West Bengal
32BHRBhadreshwar (3)  13:14+2413:15+241m--1-19.67514mERBhadreswar, West Bengal
33BBAEBaidyabati (3)  13:18+2613:19+261m--1-15.813913mERBaidyabati, West Bengal
34SHESeoraphuli Junction (6)  13:20+2513:21+251m--1-13.57613mERBaidyabati, West Bengal
35SRPSerampore (4)  13:23+2513:24+251m--1-11.06411mERdist - hooghly, West Bengal
36RISRishra (3)  13:27+2713:28+271m--1-7.88411mERRishra, West Bengal
37KOGKonnagar (3)  13:30+2713:31+271m--1-5.011510mERDist: Howrah, West Bengal
38HMZHind Motor (3)  13:32+2713:33+271m--1-3.0549mERHindmotor, West Bengal
39UPAUttarpara (3)  13:35+2713:36+271m--1-1.2749mERDist - Hooghly, West Bengal
40BLY»Bally (6)»  13:37+2613:38+261m--10.01218mERDist - Howrah, West Bengal
41BEQBelur (5)  13:39+2713:40+271m--12.0508mERHowrah, West Bengal
42LLHLiluah (5)  13:42+2613:43+261m--13.71210mERHowrah, West Bengal
43HWH•Kolkata Howrah Junction (23)•  14:05+14---18.2-10mERHowrah 711101, West Bengal
Scroll to Top
Scroll to Bottom